Perkinsville, AK

12:15 AM AKST on February 24, 2017 (GMT -0900)
Nome | | Change Station
Active Advisory: Winter Storm Warning

Elev 36 ft 64.51 °N, 165.45 °W | Updated 6 minutes ago

Overcast
Overcast
21 °F
Feels Like 9 °F
N
12
Wind Variable Wind from WNW

Today
High -- | Low -- °F
--% Chance of Precip.
Yesterday
High -- | Low -- °F
Precip. -- in
Pressure 29.85 in
Visibility 1.8 miles
Clouds Overcast 300 ft
Windchill 9 °F
Dew Point 20 °F
Humidity 96%
Rainfall 0.00 in
Snow Depth Not available.
9:25 AM 7:04 PM
Waning Crescent, 6% visible
SPECI PAOM 240909Z AUTO 29010KT 1 3/4SM BR OVC003 M06/M07 A2985 RMK AO2 I1001 T10611067 TSNO
Pressure 29.85 in
Visibility 1.8 miles
Clouds Overcast 300 ft
Windchill 9 °F
Dew Point 20 °F
Humidity 96%
Rainfall 0.00 in
Snow Depth Not available.
9:25 AM 7:04 PM
Waning Crescent, 6% visible
SPECI PAOM 240909Z AUTO 29010KT 1 3/4SM BR OVC003 M06/M07 A2985 RMK AO2 I1001 T10611067 TSNO

Get Your Daily Forecast Email!

Thanks for signing up!

Be on the lookout for a verification email in your inbox.

You'll start receiving the daily forecast at 8 AM.

×

10-Day Weather Forecast

Almanac

Astronomy

Feb. 24, 2017 Rise Set
Actual Time
Civil Twilight
Nautical Twilight
Astronomical Twilight
Moon
Length of Visible Light
Length of Day
Tomorrow will be .
, % of the Moon is Illuminated

Today's Extremes

State Highs State Lows

Community

WunderPhotos

Upload Photos

1,962,540 photos uploaded!

WunderBlog® & News

Nearby

Air Quality

  Air Quality AQ Index Pollutant
Not available.

Snow Depth

Station Depth Elevation

Earthquake Activity

City Distance Mag. Time & Date
Minimum magnitude displayed is 2.5.

Coastal Water Temperatures

Place Temperature

Stations

Nearby Weather Stations

Station Location Temp. Windchill Dew Point Humidity Wind Precip. Elev Updated Type
                   

Watches & Warnings

Winter Storm Warning
Issued: 9:34 PM AKST Feb. 23, 2017 – National Weather Service

... Winter Storm Warning remains in effect until 6 PM akst
Saturday...

* snow... additional 3 to 7 inches.

* Blowing snow... reducing visibility to one half mile or less.

* Winds... east 20 to 30 mph gusting to 50 mph.

* Timing... snow will diminish toward morning then increase again
Friday night as another weather system moves into the area.

* Impacts... visibility may be greatly reduced. Travel and
outdoor activities will be difficult.

Precautionary/preparedness actions...

A Winter Storm Warning means one or more significant winter
weather hazards are occurring or expected.